createdAt,value
2023-03-24T00:00:48.985Z,99597.06
2023-03-24T00:03:18.242Z,99581.88
2023-03-24T00:05:46.391Z,99584.53
2023-03-24T00:08:14.751Z,99563.56
2023-03-24T00:10:47.646Z,99562.91
2023-03-24T00:13:16.216Z,99555.53
2023-03-24T00:15:45.423Z,99552.28
2023-03-24T00:18:14.811Z,99543.25
2023-03-24T00:20:43.252Z,99533.44
2023-03-24T00:23:11.162Z,99537.09
2023-03-24T00:25:40.221Z,99528.84
2023-03-24T00:28:08.290Z,99529.50
2023-03-24T00:30:36.663Z,99529.31
2023-03-24T00:33:04.635Z,99528.53
2023-03-24T00:35:34.334Z,99531.81
2023-03-24T00:38:02.662Z,99518.00
2023-03-24T00:40:30.558Z,99515.31
2023-03-24T00:42:59.183Z,99508.75
2023-03-24T00:45:27.013Z,99509.53
2023-03-24T00:47:58.098Z,99496.63
2023-03-24T00:50:27.556Z,99481.63
2023-03-24T00:52:58.357Z,99480.44
2023-03-24T00:55:28.788Z,99478.19
2023-03-24T00:57:57.094Z,99475.47
2023-03-24T01:00:27.428Z,99461.91
2023-03-24T01:02:58.377Z,99463.19
2023-03-24T01:05:28.564Z,99469.34
2023-03-24T01:08:03.479Z,99473.84
2023-03-24T01:10:33.608Z,99467.47
2023-03-24T01:13:02.182Z,99475.47
2023-03-24T01:15:33.391Z,99481.00
2023-03-24T01:18:02.032Z,99479.97
2023-03-24T01:20:32.982Z,99470.31
2023-03-24T01:23:02.662Z,99473.78
2023-03-24T01:25:30.716Z,99475.06
2023-03-24T01:27:58.904Z,99462.53
2023-03-24T01:30:29.085Z,99460.28
2023-03-24T01:32:57.835Z,99459.06
2023-03-24T01:35:31.147Z,99450.22
2023-03-24T01:38:00.035Z,99460.28
2023-03-24T01:40:31.229Z,99465.16
2023-03-24T01:43:00.499Z,99454.47
2023-03-24T01:46:12.588Z,99460.63
2023-03-24T01:48:44.003Z,99450.34
2023-03-24T01:51:17.639Z,99450.78
2023-03-24T01:53:50.916Z,99438.06
2023-03-24T01:56:20.794Z,99443.81
2023-03-24T01:58:54.328Z,99440.09
2023-03-24T02:01:22.629Z,99439.28
2023-03-24T02:03:52.957Z,99428.41
2023-03-24T02:06:21.560Z,99424.06
2023-03-24T02:08:53.392Z,99410.31
2023-03-24T02:11:25.722Z,99399.44
2023-03-24T02:13:53.844Z,99396.38
2023-03-24T02:16:37.338Z,99388.13
2023-03-24T02:19:38.417Z,99386.47
2023-03-24T02:22:34.315Z,99373.13
2023-03-24T02:25:37.987Z,99372.28
2023-03-24T02:28:21.175Z,99365.09
2023-03-24T02:31:19.988Z,99357.06
2023-03-24T02:34:16.032Z,99372.38
2023-03-24T02:37:29.966Z,99358.63
2023-03-24T02:40:23.861Z,99364.97
2023-03-24T02:43:03.241Z,99363.91
2023-03-24T02:45:38.546Z,99372.75
2023-03-24T02:48:22.662Z,99369.16
2023-03-24T02:50:55.762Z,99374.50
2023-03-24T02:53:32.163Z,99381.69
2023-03-24T02:56:06.019Z,99386.22
2023-03-24T02:58:41.490Z,99371.84
2023-03-24T03:01:15.525Z,99380.09
2023-03-24T03:03:46.966Z,99370.44
2023-03-24T03:06:18.822Z,99363.66
2023-03-24T03:08:48.606Z,99372.28
2023-03-24T03:11:19.596Z,99365.69
2023-03-24T03:13:51.673Z,99364.94
2023-03-24T03:16:25.383Z,99360.63
2023-03-24T03:19:00.225Z,99353.41
2023-03-24T03:21:31.899Z,99353.81
2023-03-24T03:24:04.355Z,99352.56
2023-03-24T03:26:35.472Z,99353.19
2023-03-24T03:29:09.964Z,99367.34
2023-03-24T03:31:45.514Z,99364.53
2023-03-24T03:34:21.647Z,99370.09
2023-03-24T03:36:56.187Z,99367.66
2023-03-24T03:39:29.506Z,99359.25
2023-03-24T03:41:59.171Z,99367.47
2023-03-24T03:44:27.445Z,99369.34
2023-03-24T03:46:56.685Z,99361.72
2023-03-24T03:49:25.759Z,99377.75
2023-03-24T03:51:55.675Z,99376.34
2023-03-24T03:54:27.102Z,99388.22
2023-03-24T03:56:55.761Z,99382.50
2023-03-24T03:59:30.934Z,99393.59
2023-03-24T04:01:59.349Z,99409.44
2023-03-24T04:04:59.773Z,99413.13
2023-03-24T04:07:38.733Z,99403.06
2023-03-24T04:10:19.777Z,99402.81
2023-03-24T04:13:07.595Z,99415.22
2023-03-24T04:15:41.598Z,99410.47
2023-03-24T04:18:33.327Z,99412.09
2023-03-24T04:21:15.555Z,99419.09
2023-03-24T04:23:54.269Z,99427.75
2023-03-24T04:26:28.827Z,99425.47
2023-03-24T04:29:09.032Z,99425.91
2023-03-24T04:31:44.041Z,99434.09
2023-03-24T04:34:20.714Z,99434.09
2023-03-24T04:36:54.506Z,99432.47
2023-03-24T04:39:28.342Z,99430.63
2023-03-24T04:41:58.596Z,99433.69
2023-03-24T04:44:27.198Z,99436.16
2023-03-24T04:46:59.036Z,99427.13
2023-03-24T04:49:27.452Z,99434.50
2023-03-24T04:51:55.879Z,99426.72
2023-03-24T04:54:24.344Z,99434.88
2023-03-24T04:56:53.839Z,99431.59
2023-03-24T04:59:22.067Z,99413.31
2023-03-24T05:01:50.785Z,99406.09
2023-03-24T05:04:23.305Z,99406.53
2023-03-24T05:06:51.027Z,99392.53
2023-03-24T05:09:21.306Z,99380.22
2023-03-24T05:11:49.476Z,99379.63
2023-03-24T05:14:18.042Z,99390.09
2023-03-24T05:16:45.754Z,99382.28
2023-03-24T05:19:13.740Z,99369.13
2023-03-24T05:21:43.093Z,99362.16
2023-03-24T05:24:12.284Z,99368.72
2023-03-24T05:26:39.934Z,99369.31
2023-03-24T05:29:07.577Z,99374.47
2023-03-24T05:31:35.578Z,99383.47
2023-03-24T05:34:03.328Z,99381.00
2023-03-24T05:36:31.329Z,99383.47
2023-03-24T05:39:00.398Z,99376.88
2023-03-24T05:41:28.112Z,99380.38
2023-03-24T05:43:55.909Z,99381.00
2023-03-24T05:46:26.321Z,99392.09
2023-03-24T05:48:54.261Z,99385.53
2023-03-24T05:51:22.022Z,99392.31
2023-03-24T05:53:49.676Z,99390.03
2023-03-24T05:56:18.737Z,99385.75
2023-03-24T05:58:46.481Z,99403.81
2023-03-24T06:01:14.181Z,99415.97
2023-03-24T06:03:41.923Z,99420.66
2023-03-24T06:06:14.704Z,99422.13
2023-03-24T06:08:44.814Z,99425.41
2023-03-24T06:11:13.034Z,99421.09
2023-03-24T06:13:42.231Z,99418.44
2023-03-24T06:16:10.773Z,99418.22
2023-03-24T06:18:40.405Z,99428.28
2023-03-24T06:21:08.530Z,99425.84
2023-03-24T06:23:36.186Z,99414.94
2023-03-24T06:26:10.257Z,99418.03
2023-03-24T06:28:39.626Z,99417.22
2023-03-24T06:31:19.317Z,99428.13
2023-03-24T06:33:47.028Z,99434.88
2023-03-24T06:36:15.624Z,99432.44
2023-03-24T06:38:44.002Z,99427.50
2023-03-24T06:41:11.809Z,99431.19
2023-03-24T06:43:39.435Z,99432.44
2023-03-24T06:46:10.332Z,99441.69
2023-03-24T06:48:38.461Z,99440.66
2023-03-24T06:51:06.822Z,99450.13
2023-03-24T06:53:34.657Z,99458.34
2023-03-24T06:56:02.391Z,99451.34
2023-03-24T06:58:31.206Z,99461.66
2023-03-24T07:01:01.318Z,99462.84
2023-03-24T07:03:30.683Z,99449.06
2023-03-24T07:06:00.732Z,99464.94
2023-03-24T07:08:37.524Z,99470.66
2023-03-24T07:11:07.563Z,99469.41
2023-03-24T07:13:35.311Z,99475.59
2023-03-24T07:16:03.150Z,99476.59
2023-03-24T07:18:32.288Z,99484.41
2023-03-24T07:21:00.023Z,99481.31
2023-03-24T07:23:27.924Z,99474.94
2023-03-24T07:25:55.568Z,99466.53
2023-03-24T07:28:23.333Z,99470.63
2023-03-24T07:30:53.824Z,99468.97
2023-03-24T07:33:24.335Z,99466.94
2023-03-24T07:35:57.283Z,99482.34
2023-03-24T07:38:25.438Z,99479.06
2023-03-24T07:40:53.469Z,99470.63
2023-03-24T07:43:21.895Z,99474.31
2023-03-24T07:45:49.884Z,99480.09
2023-03-24T07:48:17.753Z,99484.22
2023-03-24T07:50:45.978Z,99474.34
2023-03-24T07:53:19.968Z,99487.28
2023-03-24T07:55:48.401Z,99479.69
2023-03-24T07:58:16.582Z,99482.56
2023-03-24T08:00:44.835Z,99489.31
2023-03-24T08:03:15.258Z,99490.59
2023-03-24T08:05:55.775Z,99491.81
2023-03-24T08:08:24.824Z,99497.38
2023-03-24T08:10:52.488Z,99496.94
2023-03-24T08:13:20.672Z,99493.25
2023-03-24T08:15:48.458Z,99493.25
2023-03-24T08:18:17.094Z,99495.72
2023-03-24T08:20:44.961Z,99495.38
2023-03-24T08:23:12.588Z,99504.00
2023-03-24T08:25:41.968Z,99499.69
2023-03-24T08:28:09.643Z,99500.72
2023-03-24T08:30:37.299Z,99501.53
2023-03-24T08:33:05.846Z,99494.34
2023-03-24T08:35:38.697Z,99507.06
2023-03-24T08:38:07.402Z,99501.06
2023-03-24T08:40:35.904Z,99498.22
2023-03-24T08:43:08.479Z,99495.38
2023-03-24T08:45:36.971Z,99493.06
2023-03-24T08:48:07.771Z,99493.28
2023-03-24T08:50:38.402Z,99501.06
2023-03-24T08:53:06.470Z,99499.06
2023-03-24T08:55:34.297Z,99494.75
2023-03-24T08:58:02.787Z,99496.59
2023-03-24T09:00:31.775Z,99501.31
2023-03-24T09:03:01.058Z,99499.06
2023-03-24T09:05:43.153Z,99499.88
2023-03-24T09:08:12.339Z,99504.41
2023-03-24T09:10:40.173Z,99496.59
2023-03-24T09:13:07.830Z,99499.44
2023-03-24T09:15:37.196Z,99508.66
2023-03-24T09:18:05.373Z,99503.13
2023-03-24T09:20:33.375Z,99516.34
2023-03-24T09:23:01.092Z,99512.63
2023-03-24T09:25:28.885Z,99505.66
2023-03-24T09:27:57.532Z,99504.22
2023-03-24T09:30:25.241Z,99524.59
2023-03-24T09:32:54.375Z,99516.56
2023-03-24T09:35:22.272Z,99516.97
2023-03-24T09:37:49.961Z,99521.28
2023-03-24T09:40:22.405Z,99525.41
2023-03-24T09:42:55.753Z,99531.97
2023-03-24T09:45:25.057Z,99531.97
2023-03-24T09:47:59.392Z,99530.53
2023-03-24T09:50:30.867Z,99536.50
2023-03-24T09:53:07.954Z,99530.97
2023-03-24T09:55:40.182Z,99536.69
2023-03-24T09:58:09.207Z,99533.00
2023-03-24T10:00:38.195Z,99533.19
2023-03-24T10:03:19.412Z,99536.50
2023-03-24T10:05:52.854Z,99541.44
2023-03-24T10:08:28.989Z,99543.50
2023-03-24T10:11:04.139Z,99544.31
2023-03-24T10:13:45.183Z,99555.44
2023-03-24T10:16:23.800Z,99550.91
2023-03-24T10:19:01.042Z,99555.03
2023-03-24T10:21:33.419Z,99553.81
2023-03-24T10:24:07.792Z,99554.81
2023-03-24T10:26:45.833Z,99561.59
2023-03-24T10:29:23.787Z,99556.44
2023-03-24T10:31:57.666Z,99564.47
2023-03-24T10:34:29.595Z,99578.88
2023-03-24T10:36:59.277Z,99596.56
2023-03-24T10:39:41.455Z,99600.66
2023-03-24T10:42:17.008Z,99616.88
2023-03-24T10:44:48.129Z,99631.06
2023-03-24T10:47:19.431Z,99627.34
2023-03-24T10:49:56.264Z,99627.75
2023-03-24T10:52:25.465Z,99631.03
2023-03-24T10:54:57.512Z,99641.53
2023-03-24T10:57:29.045Z,99641.78
2023-03-24T10:59:59.566Z,99651.22
2023-03-24T11:02:31.044Z,99652.06
2023-03-24T11:05:03.587Z,99654.13
2023-03-24T11:07:35.347Z,99644.72
2023-03-24T11:10:15.459Z,99645.53
2023-03-24T11:12:45.004Z,99638.97
2023-03-24T11:15:21.880Z,99641.66
2023-03-24T11:17:55.169Z,99634.03
2023-03-24T11:20:30.898Z,99629.13
2023-03-24T11:23:02.815Z,99651.75
2023-03-24T11:25:34.245Z,99636.28
2023-03-24T11:28:04.602Z,99627.44
2023-03-24T11:30:36.634Z,99629.28
2023-03-24T11:33:05.318Z,99631.56
2023-03-24T11:35:41.656Z,99635.06
2023-03-24T11:38:16.615Z,99648.44
2023-03-24T11:40:54.803Z,99653.78
2023-03-24T11:43:22.875Z,99641.03
2023-03-24T11:46:00.042Z,99656.88
2023-03-24T11:48:33.405Z,99646.38
2023-03-24T11:51:04.166Z,99642.69
2023-03-24T11:53:43.641Z,99656.25
2023-03-24T11:56:19.042Z,99664.91
2023-03-24T11:58:50.168Z,99660.59
2023-03-24T12:01:25.511Z,99651.75
2023-03-24T12:04:06.138Z,99635.25
2023-03-24T12:06:53.543Z,99645.38
2023-03-24T12:09:26.493Z,99642.25
2023-03-24T12:12:21.879Z,99646.38
2023-03-24T12:15:14.363Z,99646.56
2023-03-24T12:17:57.409Z,99635.25
2023-03-24T12:20:32.042Z,99636.69
2023-03-24T12:23:10.180Z,99630.56
2023-03-24T12:25:52.243Z,99650.28
2023-03-24T12:28:58.366Z,99639.75
2023-03-24T12:31:50.362Z,99630.03
2023-03-24T12:34:46.333Z,99624.75
2023-03-24T12:37:24.368Z,99623.09
2023-03-24T12:40:00.936Z,99621.13
2023-03-24T12:42:36.670Z,99626.63
2023-03-24T12:45:14.297Z,99610.09
2023-03-24T12:48:06.824Z,99618.44
2023-03-24T12:50:48.579Z,99619.34
2023-03-24T12:53:26.826Z,99617.94
2023-03-24T12:56:00.424Z,99642.38
2023-03-24T12:58:41.525Z,99650.06
2023-03-24T13:01:17.067Z,99638.81
2023-03-24T13:03:48.671Z,99631.56
2023-03-24T13:06:21.623Z,99626.44
2023-03-24T13:09:03.808Z,99613.25
2023-03-24T13:11:47.180Z,99627.09
2023-03-24T13:14:22.084Z,99621.94
2023-03-24T13:16:51.701Z,99619.72
2023-03-24T13:19:24.663Z,99621.06
2023-03-24T13:21:55.254Z,99611.84
2023-03-24T13:24:23.771Z,99614.53
2023-03-24T13:27:01.496Z,99613.63
2023-03-24T13:29:56.818Z,99628.88
2023-03-24T13:32:31.530Z,99621.78
2023-03-24T13:35:04.758Z,99622.16
2023-03-24T13:37:37.314Z,99616.69
2023-03-24T13:40:11.871Z,99615.56
2023-03-24T13:42:48.551Z,99622.47
2023-03-24T13:45:27.149Z,99613.28
2023-03-24T13:48:06.435Z,99620.81
2023-03-24T13:50:35.132Z,99625.44
2023-03-24T13:53:08.732Z,99612.53
2023-03-24T13:55:40.859Z,99617.81
2023-03-24T13:58:20.015Z,99609.38
2023-03-24T14:01:07.448Z,99605.00
2023-03-24T14:03:36.717Z,99601.78
2023-03-24T14:06:08.641Z,99592.59
2023-03-24T14:08:55.700Z,99592.97
2023-03-24T14:11:45.451Z,99599.66
2023-03-24T14:14:23.519Z,99600.56
2023-03-24T14:16:53.496Z,99584.38
2023-03-24T14:19:25.009Z,99588.94
2023-03-24T14:21:58.021Z,99577.44
2023-03-24T14:24:29.385Z,99586.63
2023-03-24T14:26:57.420Z,99603.78
2023-03-24T14:29:40.246Z,99601.69
2023-03-24T14:32:19.420Z,99586.00
2023-03-24T14:34:57.845Z,99589.00
2023-03-24T14:37:27.245Z,99597.41
2023-03-24T14:39:58.302Z,99588.09
2023-03-24T14:42:45.287Z,99597.44
2023-03-24T14:45:53.093Z,99576.25
2023-03-24T14:48:33.938Z,99582.22
2023-03-24T14:51:09.820Z,99581.16
2023-03-24T14:53:40.360Z,99585.34
2023-03-24T14:56:13.278Z,99582.13
2023-03-24T14:58:44.010Z,99587.31
2023-03-24T15:01:13.420Z,99587.44
2023-03-24T15:03:50.802Z,99577.13
2023-03-24T15:06:23.063Z,99582.00
2023-03-24T15:08:52.243Z,99572.06
2023-03-24T15:11:24.533Z,99583.81
2023-03-24T15:13:53.493Z,99573.50
2023-03-24T15:16:25.805Z,99579.47
2023-03-24T15:21:30.598Z,99571.09
2023-03-24T15:24:01.460Z,99575.56
2023-03-24T15:26:31.235Z,99576.00
2023-03-24T15:29:00.744Z,99561.09
2023-03-24T15:31:31.326Z,99560.19
2023-03-24T15:34:24.683Z,99555.03
2023-03-24T15:36:55.707Z,99562.16
2023-03-24T15:39:27.591Z,99559.03
2023-03-24T15:41:55.657Z,99563.66
2023-03-24T15:44:28.177Z,99559.91
2023-03-24T15:46:59.619Z,99563.03
2023-03-24T15:49:31.503Z,99551.00
2023-03-24T15:52:01.398Z,99549.31
2023-03-24T15:54:31.992Z,99558.88
2023-03-24T15:57:12.740Z,99556.25
2023-03-24T15:59:46.009Z,99558.41
2023-03-24T16:02:27.900Z,99555.91
2023-03-24T16:05:09.697Z,99552.75
2023-03-24T16:07:40.605Z,99557.69
2023-03-24T16:10:26.681Z,99558.94
2023-03-24T16:12:54.876Z,99561.84
2023-03-24T16:15:22.541Z,99562.22
2023-03-24T16:17:52.160Z,99559.31
2023-03-24T16:20:23.299Z,99563.94
2023-03-24T16:22:51.011Z,99566.34
2023-03-24T16:25:18.631Z,99565.56
2023-03-24T16:27:46.713Z,99561.41
2023-03-24T16:30:21.630Z,99559.06
2023-03-24T16:32:49.413Z,99556.06
2023-03-24T16:35:18.639Z,99554.69
2023-03-24T16:37:47.134Z,99564.06
2023-03-24T16:40:23.324Z,99558.72
2023-03-24T16:42:51.136Z,99566.00
2023-03-24T16:45:19.072Z,99562.59
2023-03-24T16:47:47.276Z,99562.81
2023-03-24T16:50:33.862Z,99556.22
2023-03-24T16:53:03.917Z,99553.31
2023-03-24T16:55:31.717Z,99565.31
2023-03-24T16:57:59.520Z,99567.81
2023-03-24T17:00:27.758Z,99571.09
2023-03-24T17:02:55.550Z,99569.63
2023-03-24T17:05:28.425Z,99573.81
2023-03-24T17:07:57.292Z,99577.72
2023-03-24T17:10:26.703Z,99576.72
2023-03-24T17:12:56.647Z,99582.50
2023-03-24T17:15:27.541Z,99580.25
2023-03-24T17:17:56.492Z,99583.16
2023-03-24T17:20:26.886Z,99587.28
2023-03-24T17:22:56.945Z,99589.16
2023-03-24T17:25:29.276Z,99596.41
2023-03-24T17:27:57.919Z,99603.19
2023-03-24T17:30:27.039Z,99606.72
2023-03-24T17:32:55.519Z,99614.97
2023-03-24T17:35:26.031Z,99621.56
2023-03-24T17:37:53.870Z,99617.69
2023-03-24T17:40:22.547Z,99616.66
2023-03-24T17:42:50.569Z,99622.00
2023-03-24T17:45:20.272Z,99618.72
2023-03-24T17:47:48.607Z,99626.13
2023-03-24T17:50:16.701Z,99633.56
2023-03-24T17:52:47.569Z,99644.72
2023-03-24T17:55:17.685Z,99649.25
2023-03-24T17:57:46.145Z,99654.41
2023-03-24T18:00:16.233Z,99653.41
2023-03-24T18:02:45.011Z,99639.19
2023-03-24T18:05:13.802Z,99650.72
2023-03-24T18:07:41.576Z,99654.03
2023-03-24T18:10:11.369Z,99650.09
2023-03-24T18:12:39.116Z,99645.72
2023-03-24T18:15:08.127Z,99645.97
2023-03-24T18:17:36.391Z,99644.31
2023-03-24T18:20:10.216Z,99637.34
2023-03-24T18:22:40.879Z,99645.16
2023-03-24T18:25:13.355Z,99632.81
2023-03-24T18:27:41.107Z,99630.94
2023-03-24T18:30:11.463Z,99640.41
2023-03-24T18:32:40.019Z,99633.59
2023-03-24T18:35:09.088Z,99633.38
2023-03-24T18:37:36.889Z,99642.22
2023-03-24T18:40:08.206Z,99649.59
2023-03-24T18:42:37.623Z,99645.06
2023-03-24T18:45:06.317Z,99650.81
2023-03-24T18:47:33.973Z,99650.59
2023-03-24T18:50:01.923Z,99645.88
2023-03-24T18:52:29.727Z,99643.81
2023-03-24T18:54:57.367Z,99658.00
2023-03-24T18:57:25.281Z,99662.31
2023-03-24T18:59:54.461Z,99662.09
2023-03-24T19:02:22.186Z,99662.50
2023-03-24T19:04:49.883Z,99663.47
2023-03-24T19:07:24.338Z,99659.28
2023-03-24T19:09:52.719Z,99667.09
2023-03-24T19:12:20.532Z,99678.63
2023-03-24T19:14:48.481Z,99672.56
2023-03-24T19:17:17.945Z,99694.34
2023-03-24T19:19:45.822Z,99713.06
2023-03-24T19:22:15.431Z,99732.00
2023-03-24T19:24:43.325Z,99745.38
2023-03-24T19:27:11.188Z,99759.31
2023-03-24T19:29:38.914Z,99744.72
2023-03-24T19:32:06.681Z,99760.94
2023-03-24T19:34:35.741Z,99745.91
2023-03-24T19:37:03.486Z,99741.31
2023-03-24T19:39:31.198Z,99732.84
2023-03-24T19:41:59.748Z,99734.63
2023-03-24T19:44:30.394Z,99732.16
2023-03-24T19:46:58.114Z,99732.34
2023-03-24T19:49:25.783Z,99731.53
2023-03-24T19:51:54.750Z,99731.91
2023-03-24T19:54:22.552Z,99733.94
2023-03-24T19:56:50.570Z,99717.50
2023-03-24T19:59:18.512Z,99718.31
2023-03-24T20:01:46.358Z,99716.16
2023-03-24T20:04:14.132Z,99709.13
2023-03-24T20:06:43.548Z,99700.34
2023-03-24T20:09:12.949Z,99704.50
2023-03-24T20:11:41.236Z,99685.72
2023-03-24T20:14:08.991Z,99679.91
2023-03-24T20:16:36.979Z,99696.19
2023-03-24T20:19:04.724Z,99693.28
2023-03-24T20:21:32.973Z,99689.56
2023-03-24T20:24:00.866Z,99694.50
2023-03-24T20:26:29.974Z,99673.88
2023-03-24T20:28:57.882Z,99680.28
2023-03-24T20:31:26.309Z,99688.00
2023-03-24T20:33:54.330Z,99698.63
2023-03-24T20:36:22.114Z,99712.59
2023-03-24T20:38:49.854Z,99724.53
2023-03-24T20:41:19.485Z,99729.53
2023-03-24T20:43:48.663Z,99741.78
2023-03-24T20:46:18.283Z,99748.56
2023-03-24T20:48:46.317Z,99745.31
2023-03-24T20:51:14.004Z,99750.28
2023-03-24T20:53:41.663Z,99748.25
2023-03-24T20:56:13.211Z,99763.75
2023-03-24T20:58:41.151Z,99762.47
2023-03-24T21:01:12.612Z,99789.09
2023-03-24T21:03:41.246Z,99765.84
2023-03-24T21:06:10.171Z,99761.53
2023-03-24T21:08:38.507Z,99754.75
2023-03-24T21:11:06.528Z,99736.69
2023-03-24T21:13:38.008Z,99714.88
2023-03-24T21:16:08.288Z,99711.19
2023-03-24T21:18:38.079Z,99708.91
2023-03-24T21:21:06.950Z,99710.38
2023-03-24T21:23:39.222Z,99707.47
2023-03-24T21:26:08.813Z,99710.78
2023-03-24T21:28:36.535Z,99705.63
2023-03-24T21:31:09.715Z,99725.53
2023-03-24T21:33:40.802Z,99723.41
2023-03-24T21:36:12.956Z,99736.56
2023-03-24T21:38:40.755Z,99739.81
2023-03-24T21:41:09.235Z,99745.75
2023-03-24T21:43:37.664Z,99741.81
2023-03-24T21:46:05.868Z,99744.84
2023-03-24T21:48:34.912Z,99751.38
2023-03-24T21:51:05.536Z,99749.66
2023-03-24T21:53:34.806Z,99751.47
2023-03-24T21:56:05.390Z,99757.91
2023-03-24T21:58:34.772Z,99744.81
2023-03-24T22:01:03.040Z,99748.91
2023-03-24T22:03:37.014Z,99750.69
2023-03-24T22:06:10.356Z,99744.72
2023-03-24T22:08:38.976Z,99748.19
2023-03-24T22:11:10.227Z,99749.84
2023-03-24T22:13:39.328Z,99754.72
2023-03-24T22:16:08.741Z,99752.22
2023-03-24T22:18:36.589Z,99746.53
2023-03-24T22:21:07.959Z,99750.88
2023-03-24T22:23:38.131Z,99751.31
2023-03-24T22:26:07.968Z,99752.84
2023-03-24T22:28:39.230Z,99753.13
2023-03-24T22:31:09.396Z,99755.41
2023-03-24T22:33:37.452Z,99760.72
2023-03-24T22:36:08.125Z,99758.72
2023-03-24T22:38:38.785Z,99754.22
2023-03-24T22:41:09.643Z,99755.78
2023-03-24T22:43:39.444Z,99761.50
2023-03-24T22:46:07.980Z,99761.13
2023-03-24T22:48:36.115Z,99762.22
2023-03-24T22:51:04.288Z,99766.06
2023-03-24T22:53:33.463Z,99750.25
2023-03-24T22:56:01.250Z,99750.25
2023-03-24T22:58:29.062Z,99752.59
2023-03-24T23:00:58.175Z,99751.47
2023-03-24T23:03:26.090Z,99750.56
2023-03-24T23:05:53.841Z,99744.13
2023-03-24T23:08:21.859Z,99747.72
2023-03-24T23:10:50.910Z,99746.34
2023-03-24T23:13:18.586Z,99742.25
2023-03-24T23:15:49.005Z,99742.88
2023-03-24T23:18:17.387Z,99756.38
2023-03-24T23:20:45.624Z,99760.31
2023-03-24T23:23:15.190Z,99751.97
2023-03-24T23:25:44.266Z,99756.47
2023-03-24T23:28:13.968Z,99778.69
2023-03-24T23:30:42.081Z,99770.00
2023-03-24T23:33:14.970Z,99787.06
2023-03-24T23:35:42.829Z,99779.63
2023-03-24T23:38:10.536Z,99784.03
2023-03-24T23:40:38.340Z,99802.09
2023-03-24T23:43:06.096Z,99804.16
2023-03-24T23:45:35.224Z,99789.88
2023-03-24T23:48:02.999Z,99802.38
2023-03-24T23:50:30.688Z,99808.16
2023-03-24T23:52:59.113Z,99809.34
2023-03-24T23:55:28.019Z,99796.94
2023-03-24T23:57:56.480Z,99808.41
